createdAt,value
2022-10-31T00:01:36.915Z,11.57
2022-10-31T00:04:06.353Z,11.56
2022-10-31T00:06:34.690Z,11.49
2022-10-31T00:09:04.757Z,11.50
2022-10-31T00:11:33.468Z,11.45
2022-10-31T00:14:01.884Z,11.38
2022-10-31T00:16:30.656Z,11.41
2022-10-31T00:19:02.394Z,11.28
2022-10-31T00:21:32.000Z,11.21
2022-10-31T00:24:00.968Z,11.28
2022-10-31T00:26:29.991Z,11.27
2022-10-31T00:29:00.344Z,11.28
2022-10-31T00:31:29.679Z,11.22
2022-10-31T00:33:59.337Z,11.17
2022-10-31T00:36:28.386Z,11.19
2022-10-31T00:38:59.101Z,11.15
2022-10-31T00:41:27.436Z,11.05
2022-10-31T00:43:55.595Z,11.03
2022-10-31T00:46:24.005Z,11.07
2022-10-31T00:48:52.393Z,11.04
2022-10-31T00:51:20.511Z,11.04
2022-10-31T00:53:48.795Z,11.03
2022-10-31T00:56:16.922Z,11.00
2022-10-31T00:58:45.041Z,11.03
2022-10-31T01:01:13.715Z,11.11
2022-10-31T01:03:42.027Z,11.05
2022-10-31T01:06:14.036Z,11.08
2022-10-31T01:08:43.205Z,11.12
2022-10-31T01:11:22.322Z,11.10
2022-10-31T01:13:53.840Z,11.08
2022-10-31T01:16:24.852Z,11.11
2022-10-31T01:18:53.846Z,11.01
2022-10-31T01:21:24.623Z,11.03
2022-10-31T01:23:57.254Z,10.94
2022-10-31T01:26:31.833Z,10.95
2022-10-31T01:29:06.520Z,10.94
2022-10-31T01:31:39.247Z,10.89
2022-10-31T01:34:07.855Z,10.82
2022-10-31T01:36:38.995Z,10.78
2022-10-31T01:39:13.279Z,10.82
2022-10-31T01:41:44.867Z,10.89
2022-10-31T01:44:16.123Z,10.81
2022-10-31T01:47:08.952Z,10.91
2022-10-31T01:49:44.546Z,10.81
2022-10-31T01:52:27.854Z,10.91
2022-10-31T01:55:04.180Z,10.78
2022-10-31T01:57:34.299Z,10.78
2022-10-31T02:00:07.762Z,10.81
2022-10-31T02:02:42.865Z,10.76
2022-10-31T02:05:17.170Z,10.85
2022-10-31T02:07:55.514Z,10.87
2022-10-31T02:10:32.143Z,10.94
2022-10-31T02:13:07.191Z,10.80
2022-10-31T02:15:39.327Z,10.75
2022-10-31T02:18:08.640Z,10.80
2022-10-31T02:21:01.950Z,10.72
2022-10-31T02:24:07.021Z,10.75
2022-10-31T02:27:13.357Z,10.68
2022-10-31T02:30:03.578Z,10.66
2022-10-31T02:32:37.131Z,10.64
2022-10-31T02:35:36.632Z,10.60
2022-10-31T02:38:28.610Z,10.56
2022-10-31T02:40:57.752Z,10.58
2022-10-31T02:43:41.615Z,10.53
2022-10-31T02:46:31.484Z,10.62
2022-10-31T02:49:07.583Z,10.56
2022-10-31T02:51:37.019Z,10.44
2022-10-31T02:54:05.427Z,10.36
2022-10-31T02:56:33.698Z,10.36
2022-10-31T02:59:05.084Z,10.41
2022-10-31T03:01:54.217Z,10.44
2022-10-31T03:04:33.969Z,10.45
2022-10-31T03:07:17.685Z,10.49
2022-10-31T03:10:06.058Z,10.51
2022-10-31T03:12:43.192Z,10.59
2022-10-31T03:15:22.394Z,10.51
2022-10-31T03:18:10.748Z,10.59
2022-10-31T03:20:47.035Z,10.61
2022-10-31T03:23:19.039Z,10.67
2022-10-31T03:25:49.942Z,10.74
2022-10-31T03:28:22.660Z,10.76
2022-10-31T03:30:53.794Z,10.83
2022-10-31T03:33:28.476Z,10.82
2022-10-31T03:36:01.466Z,10.87
2022-10-31T03:38:33.232Z,10.87
2022-10-31T03:41:05.843Z,10.78
2022-10-31T03:43:41.804Z,10.86
2022-10-31T03:46:10.295Z,10.92
2022-10-31T03:48:39.413Z,10.79
2022-10-31T03:51:37.443Z,10.82
2022-10-31T03:54:30.109Z,10.84
2022-10-31T03:57:02.718Z,10.69
2022-10-31T03:59:36.100Z,10.73
2022-10-31T04:02:09.488Z,10.82
2022-10-31T04:04:39.837Z,10.84
2022-10-31T04:07:09.331Z,10.77
2022-10-31T04:09:41.794Z,10.76
2022-10-31T04:12:15.984Z,10.77
2022-10-31T04:14:50.076Z,10.69
2022-10-31T04:17:22.435Z,10.70
2022-10-31T04:19:51.826Z,10.64
2022-10-31T04:22:22.203Z,10.75
2022-10-31T04:24:50.668Z,10.73
2022-10-31T04:27:19.197Z,10.60
2022-10-31T04:29:50.673Z,10.64
2022-10-31T04:32:19.595Z,10.59
2022-10-31T04:34:47.763Z,10.54
2022-10-31T04:37:15.897Z,10.62
2022-10-31T04:39:44.214Z,10.61
2022-10-31T04:42:14.244Z,10.60
2022-10-31T04:44:42.435Z,10.53
2022-10-31T04:47:11.129Z,10.51
2022-10-31T04:49:39.182Z,10.47
2022-10-31T04:52:09.123Z,10.54
2022-10-31T04:54:37.535Z,10.53
2022-10-31T04:57:07.973Z,10.53
2022-10-31T04:59:36.545Z,10.54
2022-10-31T05:02:05.347Z,10.63
2022-10-31T05:04:34.793Z,10.65
2022-10-31T05:07:04.091Z,10.69
2022-10-31T05:09:32.656Z,10.59
2022-10-31T05:12:00.712Z,10.65
2022-10-31T05:14:29.357Z,10.65
2022-10-31T05:16:58.032Z,10.66
2022-10-31T05:19:27.827Z,10.66
2022-10-31T05:21:57.321Z,10.73
2022-10-31T05:24:25.877Z,10.69
2022-10-31T05:26:54.253Z,10.74
2022-10-31T05:29:22.769Z,10.70
2022-10-31T05:31:51.244Z,10.62
2022-10-31T05:34:21.466Z,10.67
2022-10-31T05:36:51.001Z,10.72
2022-10-31T05:39:19.561Z,10.75
2022-10-31T05:41:48.123Z,10.75
2022-10-31T05:44:16.597Z,10.82
2022-10-31T05:46:47.704Z,10.70
2022-10-31T05:49:18.472Z,10.75
2022-10-31T05:51:47.898Z,10.71
2022-10-31T05:54:16.315Z,10.80
2022-10-31T05:56:45.391Z,10.76
2022-10-31T05:59:13.888Z,10.77
2022-10-31T06:01:42.420Z,10.85
2022-10-31T06:04:12.897Z,10.91
2022-10-31T06:06:41.002Z,10.92
2022-10-31T06:09:09.104Z,10.87
2022-10-31T06:11:37.657Z,10.94
2022-10-31T06:14:11.078Z,10.93
2022-10-31T06:16:40.945Z,10.93
2022-10-31T06:19:10.685Z,10.96
2022-10-31T06:21:39.014Z,10.98
2022-10-31T06:24:07.583Z,10.90
2022-10-31T06:26:38.906Z,10.95
2022-10-31T06:29:07.235Z,10.96
2022-10-31T06:31:37.250Z,10.95
2022-10-31T06:34:05.420Z,11.02
2022-10-31T06:36:34.196Z,11.09
2022-10-31T06:39:02.464Z,11.07
2022-10-31T06:41:32.997Z,11.03
2022-10-31T06:44:05.027Z,11.04
2022-10-31T06:46:36.878Z,11.10
2022-10-31T06:49:07.491Z,11.15
2022-10-31T06:51:35.790Z,11.15
2022-10-31T06:54:04.194Z,11.14
2022-10-31T06:56:32.841Z,11.13
2022-10-31T06:59:01.642Z,11.09
2022-10-31T07:01:32.025Z,11.17
2022-10-31T07:04:01.477Z,11.10
2022-10-31T07:06:32.608Z,11.15
2022-10-31T07:09:01.049Z,11.17
2022-10-31T07:11:29.187Z,11.03
2022-10-31T07:13:57.817Z,10.97
2022-10-31T07:16:26.898Z,10.99
2022-10-31T07:18:55.304Z,11.05
2022-10-31T07:21:23.452Z,11.00
2022-10-31T07:23:51.848Z,11.03
2022-10-31T07:26:23.020Z,11.07
2022-10-31T07:28:51.370Z,11.10
2022-10-31T07:31:19.863Z,11.17
2022-10-31T07:33:48.039Z,11.16
2022-10-31T07:36:18.033Z,11.21
2022-10-31T07:38:46.242Z,11.22
2022-10-31T07:41:15.258Z,11.31
2022-10-31T07:43:43.841Z,11.26
2022-10-31T07:46:13.428Z,11.25
2022-10-31T07:48:44.057Z,11.29
2022-10-31T07:51:13.205Z,11.26
2022-10-31T07:53:44.885Z,11.22
2022-10-31T07:56:13.491Z,11.25
2022-10-31T07:58:42.421Z,11.34
2022-10-31T08:01:10.714Z,11.33
2022-10-31T08:03:39.417Z,11.34
2022-10-31T08:06:10.332Z,11.29
2022-10-31T08:08:43.754Z,11.16
2022-10-31T08:11:13.259Z,11.26
2022-10-31T08:13:41.714Z,11.27
2022-10-31T08:16:11.272Z,11.27
2022-10-31T08:18:40.370Z,11.30
2022-10-31T08:21:09.779Z,11.21
2022-10-31T08:23:41.647Z,11.22
2022-10-31T08:26:10.169Z,11.15
2022-10-31T08:28:38.702Z,11.22
2022-10-31T08:31:06.917Z,11.25
2022-10-31T08:33:40.136Z,11.31
2022-10-31T08:36:11.458Z,11.28
2022-10-31T08:38:41.914Z,11.38
2022-10-31T08:41:10.217Z,11.40
2022-10-31T08:43:38.553Z,11.35
2022-10-31T08:46:07.286Z,11.31
2022-10-31T08:48:35.459Z,11.42
2022-10-31T08:51:04.232Z,11.43
2022-10-31T08:53:33.032Z,11.44
2022-10-31T08:56:04.313Z,11.48
2022-10-31T08:58:36.389Z,11.51
2022-10-31T09:01:08.674Z,11.50
2022-10-31T09:03:37.630Z,11.51
2022-10-31T09:06:09.740Z,11.41
2022-10-31T09:08:39.469Z,11.44
2022-10-31T09:11:08.278Z,11.37
2022-10-31T09:13:41.422Z,11.44
2022-10-31T09:16:11.417Z,11.39
2022-10-31T09:18:40.223Z,11.47
2022-10-31T09:21:08.883Z,11.35
2022-10-31T09:23:37.126Z,11.41
2022-10-31T09:26:05.794Z,11.34
2022-10-31T09:28:34.279Z,11.42
2022-10-31T09:31:02.818Z,11.47
2022-10-31T09:33:32.778Z,11.46
2022-10-31T09:36:02.719Z,11.50
2022-10-31T09:38:32.381Z,11.50
2022-10-31T09:41:49.911Z,11.49
2022-10-31T09:45:00.519Z,11.48
2022-10-31T09:47:35.478Z,11.58
2022-10-31T09:50:27.273Z,11.51
2022-10-31T09:53:09.454Z,11.51
2022-10-31T09:55:51.045Z,11.40
2022-10-31T09:58:33.003Z,11.39
2022-10-31T10:01:05.600Z,11.46
2022-10-31T10:03:40.298Z,11.50
2022-10-31T10:06:24.425Z,11.60
2022-10-31T10:08:56.335Z,11.54
2022-10-31T10:11:45.307Z,11.48
2022-10-31T10:14:23.037Z,11.59
2022-10-31T10:16:57.337Z,11.60
2022-10-31T10:19:34.602Z,11.68
2022-10-31T10:22:25.411Z,11.60
2022-10-31T10:25:15.002Z,11.61
2022-10-31T10:28:00.576Z,11.61
2022-10-31T10:30:38.185Z,11.58
2022-10-31T10:33:21.020Z,11.60
2022-10-31T10:36:15.442Z,11.59
2022-10-31T10:39:02.255Z,11.55
2022-10-31T10:41:34.906Z,11.67
2022-10-31T10:44:09.852Z,11.75
2022-10-31T10:47:18.851Z,11.71
2022-10-31T10:49:53.658Z,11.70
2022-10-31T10:52:43.186Z,11.78
2022-10-31T10:55:25.005Z,11.65
2022-10-31T10:57:59.430Z,11.76
2022-10-31T11:00:37.017Z,11.75
2022-10-31T11:03:06.612Z,11.72
2022-10-31T11:06:02.655Z,11.77
2022-10-31T11:08:37.507Z,11.75
2022-10-31T11:11:35.058Z,11.71
2022-10-31T11:14:16.459Z,11.81
2022-10-31T11:16:48.683Z,11.85
2022-10-31T11:19:23.487Z,11.76
2022-10-31T11:21:54.296Z,11.80
2022-10-31T11:24:27.220Z,11.77
2022-10-31T11:27:15.149Z,11.68
2022-10-31T11:29:44.063Z,11.67
2022-10-31T11:32:27.464Z,11.72
2022-10-31T11:34:59.510Z,11.74
2022-10-31T11:37:36.230Z,11.70
2022-10-31T11:40:07.515Z,11.71
2022-10-31T11:42:43.839Z,11.81
2022-10-31T11:45:29.729Z,11.67
2022-10-31T11:48:18.628Z,11.73
2022-10-31T11:50:57.702Z,11.72
2022-10-31T11:53:30.434Z,11.82
2022-10-31T11:56:15.855Z,11.83
2022-10-31T11:58:44.055Z,11.83
2022-10-31T12:01:29.905Z,11.93
2022-10-31T12:04:07.799Z,11.97
2022-10-31T12:06:38.300Z,11.93
2022-10-31T12:09:30.960Z,11.88
2022-10-31T12:12:29.632Z,11.80
2022-10-31T12:15:21.303Z,11.84
2022-10-31T12:18:12.907Z,11.87
2022-10-31T12:20:58.905Z,11.82
2022-10-31T12:24:04.210Z,11.86
2022-10-31T12:26:54.577Z,11.89
2022-10-31T12:29:53.407Z,11.95
2022-10-31T12:32:32.706Z,11.91
2022-10-31T12:35:24.401Z,11.71
2022-10-31T12:37:59.114Z,11.67
2022-10-31T12:40:40.838Z,11.73
2022-10-31T12:43:43.128Z,11.79
2022-10-31T12:46:35.296Z,11.81
2022-10-31T12:49:23.871Z,11.85
2022-10-31T12:52:03.978Z,11.88
2022-10-31T12:55:06.312Z,11.87
2022-10-31T12:57:43.422Z,11.94
2022-10-31T13:00:16.983Z,11.94
2022-10-31T13:03:06.474Z,11.93
2022-10-31T13:05:42.552Z,11.88
2022-10-31T13:08:19.099Z,11.88
2022-10-31T13:10:57.952Z,11.87
2022-10-31T13:13:38.118Z,11.86
2022-10-31T13:16:19.792Z,11.85
2022-10-31T13:19:17.811Z,11.81
2022-10-31T13:22:01.088Z,11.83
2022-10-31T13:24:42.736Z,11.79
2022-10-31T13:27:42.761Z,11.86
2022-10-31T13:30:18.078Z,11.78
2022-10-31T13:33:01.876Z,11.80
2022-10-31T13:35:49.775Z,11.85
2022-10-31T13:38:38.836Z,11.86
2022-10-31T13:41:12.795Z,11.87
2022-10-31T13:43:41.565Z,11.88
2022-10-31T13:46:31.758Z,11.89
2022-10-31T13:49:00.439Z,11.90
2022-10-31T13:51:36.242Z,11.90
2022-10-31T13:54:22.319Z,11.92
2022-10-31T13:56:54.008Z,11.86
2022-10-31T13:59:24.560Z,11.78
2022-10-31T14:01:54.700Z,11.66
2022-10-31T14:04:32.737Z,11.69
2022-10-31T14:07:13.290Z,11.68
2022-10-31T14:10:03.472Z,11.71
2022-10-31T14:12:49.714Z,11.67
2022-10-31T14:15:29.401Z,11.66
2022-10-31T14:18:07.962Z,11.63
2022-10-31T14:20:41.776Z,11.65
2022-10-31T14:23:34.596Z,11.64
2022-10-31T14:26:24.245Z,11.66
2022-10-31T14:28:53.525Z,11.61
2022-10-31T14:31:33.596Z,11.64
2022-10-31T14:34:19.807Z,11.63
2022-10-31T14:37:23.305Z,11.59
2022-10-31T14:40:33.608Z,11.63
2022-10-31T14:43:35.389Z,11.64
2022-10-31T14:46:15.724Z,11.62
2022-10-31T14:48:58.529Z,11.65
2022-10-31T14:51:36.108Z,11.70
2022-10-31T14:54:07.369Z,11.68
2022-10-31T14:56:38.457Z,11.73
2022-10-31T14:59:15.811Z,11.68
2022-10-31T15:01:56.452Z,11.64
2022-10-31T15:04:33.422Z,11.61
2022-10-31T15:07:21.684Z,11.48
2022-10-31T15:10:19.799Z,11.55
2022-10-31T15:12:47.984Z,11.52
2022-10-31T15:15:24.474Z,11.59
2022-10-31T15:18:00.923Z,11.59
2022-10-31T15:20:46.115Z,11.60
2022-10-31T15:23:29.390Z,11.59
2022-10-31T15:26:02.379Z,11.64
2022-10-31T15:28:32.311Z,11.55
2022-10-31T15:31:07.483Z,11.50
2022-10-31T15:33:48.220Z,11.42
2022-10-31T15:36:25.537Z,11.38
2022-10-31T15:38:58.621Z,11.41
2022-10-31T15:41:37.454Z,11.43
2022-10-31T15:44:34.150Z,11.48
2022-10-31T15:47:06.603Z,11.46
2022-10-31T15:49:48.006Z,11.41
2022-10-31T15:52:21.355Z,11.44
2022-10-31T15:54:56.445Z,11.47
2022-10-31T15:57:27.199Z,11.43
2022-10-31T15:59:56.293Z,11.43
2022-10-31T16:02:27.430Z,11.44
2022-10-31T16:05:02.238Z,11.46
2022-10-31T16:07:31.350Z,11.45
2022-10-31T16:10:02.663Z,11.37
2022-10-31T16:12:36.698Z,11.39
2022-10-31T16:15:06.665Z,11.43
2022-10-31T16:17:34.835Z,11.45
2022-10-31T16:20:07.270Z,11.42
2022-10-31T16:22:38.582Z,11.46
2022-10-31T16:25:20.935Z,11.52
2022-10-31T16:27:54.735Z,11.49
2022-10-31T16:30:26.364Z,11.43
2022-10-31T16:32:57.493Z,11.45
2022-10-31T16:35:36.306Z,11.40
2022-10-31T16:38:05.733Z,11.33
2022-10-31T16:40:34.964Z,11.31
2022-10-31T16:43:03.762Z,11.29
2022-10-31T16:45:34.476Z,11.32
2022-10-31T16:48:15.727Z,11.29
2022-10-31T16:50:45.138Z,11.21
2022-10-31T16:53:16.849Z,11.22
2022-10-31T16:55:51.702Z,11.28
2022-10-31T16:58:26.677Z,11.25
2022-10-31T17:00:55.511Z,11.20
2022-10-31T17:03:23.663Z,11.25
2022-10-31T17:05:51.890Z,11.22
2022-10-31T17:08:24.751Z,11.12
2022-10-31T17:10:56.198Z,11.19
2022-10-31T17:13:28.590Z,11.24
2022-10-31T17:15:59.244Z,11.07
2022-10-31T17:18:28.582Z,11.05
2022-10-31T17:21:03.274Z,11.08
2022-10-31T17:23:33.277Z,11.06
2022-10-31T17:26:01.176Z,11.11
2022-10-31T17:28:34.159Z,11.12
2022-10-31T17:31:02.518Z,11.04
2022-10-31T17:33:30.523Z,11.07
2022-10-31T17:36:03.053Z,11.07
2022-10-31T17:38:31.563Z,10.98
2022-10-31T17:40:59.677Z,11.01
2022-10-31T17:43:28.082Z,11.01
2022-10-31T17:46:00.448Z,11.00
2022-10-31T17:48:29.298Z,11.03
2022-10-31T17:51:01.272Z,11.00
2022-10-31T17:53:30.916Z,10.98
2022-10-31T17:56:07.642Z,11.01
2022-10-31T17:58:37.711Z,10.93
2022-10-31T18:01:11.799Z,10.87
2022-10-31T18:03:40.564Z,10.92
2022-10-31T18:06:10.505Z,10.92
2022-10-31T18:08:40.070Z,10.93
2022-10-31T18:11:12.054Z,10.98
2022-10-31T18:13:41.040Z,10.92
2022-10-31T18:16:11.328Z,10.96
2022-10-31T18:18:40.177Z,10.97
2022-10-31T18:21:09.308Z,10.98
2022-10-31T18:23:38.281Z,10.90
2022-10-31T18:26:06.536Z,10.86
2022-10-31T18:28:36.701Z,10.95
2022-10-31T18:31:05.445Z,10.89
2022-10-31T18:33:33.806Z,10.91
2022-10-31T18:36:11.099Z,10.92
2022-10-31T18:38:42.105Z,10.88
2022-10-31T18:41:10.921Z,10.85
2022-10-31T18:43:39.756Z,10.88
2022-10-31T18:46:10.521Z,10.90
2022-10-31T18:48:41.042Z,10.78
2022-10-31T18:51:11.891Z,10.78
2022-10-31T18:53:40.754Z,10.81
2022-10-31T18:56:11.112Z,10.81
2022-10-31T18:58:40.530Z,10.80
2022-10-31T19:01:10.873Z,10.78
2022-10-31T19:03:40.236Z,10.80
2022-10-31T19:06:10.118Z,10.78
2022-10-31T19:08:39.713Z,10.79
2022-10-31T19:11:13.566Z,10.85
2022-10-31T19:13:43.886Z,10.84
2022-10-31T19:16:15.873Z,10.75
2022-10-31T19:18:45.225Z,10.83
2022-10-31T19:21:21.423Z,10.75
2022-10-31T19:23:51.793Z,10.78
2022-10-31T19:26:20.726Z,10.82
2022-10-31T19:28:49.718Z,10.73
2022-10-31T19:31:19.033Z,10.76
2022-10-31T19:33:47.819Z,10.73
2022-10-31T19:36:19.424Z,10.75
2022-10-31T19:38:50.300Z,10.76
2022-10-31T19:41:20.665Z,10.81
2022-10-31T19:43:49.463Z,10.76
2022-10-31T19:46:22.687Z,10.78
2022-10-31T19:49:03.037Z,10.73
2022-10-31T19:51:31.619Z,10.73
2022-10-31T19:53:59.614Z,10.66
2022-10-31T19:56:28.514Z,10.69
2022-10-31T19:58:59.806Z,10.74
2022-10-31T20:01:28.603Z,10.74
2022-10-31T20:03:57.271Z,10.77
2022-10-31T20:06:28.230Z,10.77
2022-10-31T20:08:57.271Z,10.77
2022-10-31T20:11:27.614Z,10.71
2022-10-31T20:13:57.373Z,10.62
2022-10-31T20:16:29.891Z,10.67
2022-10-31T20:18:59.761Z,10.61
2022-10-31T20:21:32.043Z,10.64
2022-10-31T20:24:05.844Z,10.62
2022-10-31T20:26:34.574Z,10.49
2022-10-31T20:29:03.471Z,10.57
2022-10-31T20:31:34.756Z,10.60
2022-10-31T20:34:03.913Z,10.68
2022-10-31T20:36:34.797Z,10.63
2022-10-31T20:39:04.338Z,10.68
2022-10-31T20:41:32.657Z,10.68
2022-10-31T20:44:01.042Z,10.62
2022-10-31T20:46:30.621Z,10.69
2022-10-31T20:48:59.041Z,10.69
2022-10-31T20:51:28.804Z,10.67
2022-10-31T20:53:59.530Z,10.63
2022-10-31T20:56:28.895Z,10.65
2022-10-31T20:58:57.842Z,10.68
2022-10-31T21:01:29.713Z,10.67
2022-10-31T21:03:59.458Z,10.73
2022-10-31T21:06:28.285Z,10.73
2022-10-31T21:08:57.615Z,10.73
2022-10-31T21:11:27.822Z,10.71
2022-10-31T21:13:56.030Z,10.71
2022-10-31T21:16:26.740Z,10.75
2022-10-31T21:18:55.460Z,10.71
2022-10-31T21:21:33.092Z,10.72
2022-10-31T21:24:07.386Z,10.64
2022-10-31T21:26:38.990Z,10.69
2022-10-31T21:29:08.836Z,10.69
2022-10-31T21:31:37.787Z,10.71
2022-10-31T21:34:06.580Z,10.70
2022-10-31T21:36:35.734Z,10.65
2022-10-31T21:39:05.330Z,10.61
2022-10-31T21:41:33.689Z,10.65
2022-10-31T21:44:02.105Z,10.62
2022-10-31T21:46:31.751Z,10.62
2022-10-31T21:49:02.553Z,10.59
2022-10-31T21:51:33.973Z,10.58
2022-10-31T21:54:21.028Z,10.54
2022-10-31T21:56:49.541Z,10.59
2022-10-31T21:59:17.640Z,10.51
2022-10-31T22:01:45.774Z,10.53
2022-10-31T22:04:14.450Z,10.57
2022-10-31T22:06:42.857Z,10.56
2022-10-31T22:09:13.916Z,10.58
2022-10-31T22:11:42.863Z,10.59
2022-10-31T22:14:13.112Z,10.67
2022-10-31T22:16:42.238Z,10.65
2022-10-31T22:19:12.480Z,10.60
2022-10-31T22:21:46.876Z,10.57
2022-10-31T22:24:16.648Z,10.61
2022-10-31T22:26:45.106Z,10.59
2022-10-31T22:29:18.539Z,10.62
2022-10-31T22:31:50.766Z,10.54
2022-10-31T22:34:22.231Z,10.40
2022-10-31T22:36:51.023Z,10.48
2022-10-31T22:39:19.559Z,10.50
2022-10-31T22:41:47.714Z,10.46
2022-10-31T22:44:16.047Z,10.39
2022-10-31T22:46:44.029Z,10.42
2022-10-31T22:49:15.110Z,10.40
2022-10-31T22:51:44.561Z,10.40
2022-10-31T22:54:15.627Z,10.40
2022-10-31T22:56:44.273Z,10.31
2022-10-31T22:59:13.857Z,10.41
2022-10-31T23:01:44.956Z,10.33
2022-10-31T23:04:15.711Z,10.28
2022-10-31T23:06:44.781Z,10.31
2022-10-31T23:09:15.414Z,10.29
2022-10-31T23:11:44.190Z,10.31
2022-10-31T23:14:16.484Z,10.25
2022-10-31T23:16:51.623Z,10.27
2022-10-31T23:19:24.537Z,10.22
2022-10-31T23:22:02.176Z,10.29
2022-10-31T23:24:45.075Z,10.30
2022-10-31T23:27:15.864Z,10.33
2022-10-31T23:29:46.944Z,10.35
2022-10-31T23:32:30.585Z,10.29
2022-10-31T23:35:01.712Z,10.22
2022-10-31T23:37:32.764Z,10.29
2022-10-31T23:40:01.631Z,10.27
2022-10-31T23:42:30.412Z,10.26
2022-10-31T23:44:58.527Z,10.31
2022-10-31T23:47:28.964Z,10.30
2022-10-31T23:49:57.420Z,10.31
2022-10-31T23:52:25.464Z,10.33
2022-10-31T23:54:53.554Z,10.29
2022-10-31T23:57:21.999Z,10.30
2022-10-31T23:59:50.143Z,10.27
